Time;durP1;ratioP1;P1;durP2;ratioP2;P2;SDS_P1;SDS_P2;PMS_P1;PMS_P2;Temp;Humidity;BMP_temperature;BMP_pressure;BME280_temperature;BME280_humidity;BME280_pressure;Samples;Min_cycle;Max_cycle;Signal;HPM_P1;HPM_P2
2023/04/27 00:00:43;;;;;;;0.20;0.20;;;1.40;99.90;;;;;;4995866;28;20077;-74
2023/04/27 00:03:09;;;;;;;0.25;0.25;;;1.30;99.90;;;;;;5013301;28;20559;-74
2023/04/27 00:05:38;;;;;;;0.28;0.28;;;1.30;99.90;;;;;;5013350;28;20022;-74
2023/04/27 00:08:07;;;;;;;0.20;0.20;;;1.30;99.90;;;;;;4994986;28;20029;-74
2023/04/27 00:10:33;;;;;;;0.30;0.30;;;1.30;99.90;;;;;;5013094;28;20511;-74
2023/04/27 00:12:58;;;;;;;0.20;0.20;;;1.20;99.90;;;;;;4995803;28;20057;-74
2023/04/27 00:15:24;;;;;;;0.20;0.20;;;1.30;99.90;;;;;;4995494;28;20022;-74
2023/04/27 00:17:50;;;;;;;0.20;0.20;;;1.50;99.90;;;;;;5013518;28;20037;-74
2023/04/27 00:20:15;;;;;;;0.30;0.30;;;1.60;99.90;;;;;;5013883;28;20072;-74
2023/04/27 00:22:41;;;;;;;0.20;0.20;;;1.70;99.90;;;;;;5012498;28;20037;-74
2023/04/27 00:25:07;;;;;;;0.20;0.20;;;2.00;99.90;;;;;;5013216;28;20093;-74
2023/04/27 00:27:33;;;;;;;0.30;0.30;;;2.20;99.90;;;;;;5013029;28;20028;-74
2023/04/27 00:29:58;;;;;;;0.20;0.20;;;2.30;99.90;;;;;;5013183;28;20511;-74
2023/04/27 00:32:24;;;;;;;0.20;0.20;;;2.30;99.90;;;;;;4998634;28;20014;-74
2023/04/27 00:34:49;;;;;;;0.20;0.20;;;2.20;99.90;;;;;;5016728;28;20030;-74
2023/04/27 00:37:15;;;;;;;0.15;0.15;;;2.10;99.90;;;;;;4998812;28;20037;-73
2023/04/27 00:39:40;;;;;;;0.20;0.20;;;2.00;99.90;;;;;;5016789;28;20037;-74
2023/04/27 00:42:10;;;;;;;0.20;0.20;;;1.90;99.90;;;;;;5017296;28;20018;-74
2023/04/27 00:44:36;;;;;;;0.13;0.13;;;2.00;99.90;;;;;;5016573;28;20026;-74
2023/04/27 00:47:01;;;;;;;0.30;0.30;;;1.90;99.90;;;;;;5016364;28;20038;-74
2023/04/27 00:49:27;;;;;;;0.20;0.20;;;1.90;99.90;;;;;;5016715;28;20022;-74
2023/04/27 00:51:54;;;;;;;0.13;0.13;;;1.80;99.90;;;;;;5016441;28;20388;-74
2023/04/27 00:54:20;;;;;;;0.20;0.20;;;1.70;99.90;;;;;;5016809;28;20028;-74
2023/04/27 00:56:52;;;;;;;0.20;0.20;;;1.60;99.90;;;;;;5016089;28;20022;-74
2023/04/27 00:59:18;;;;;;;0.30;0.30;;;1.60;99.90;;;;;;5015177;28;20044;-74
2023/04/27 01:01:45;;;;;;;0.20;0.20;;;1.50;99.90;;;;;;4994075;28;20039;-73
2023/04/27 01:04:11;;;;;;;0.20;0.20;;;1.40;99.90;;;;;;4959996;28;20033;-74
2023/04/27 01:06:38;;;;;;;0.20;0.20;;;1.30;99.90;;;;;;4978763;28;20392;-74
2023/04/27 01:09:04;;;;;;;0.20;0.20;;;1.40;99.90;;;;;;5002998;28;20033;-74
2023/04/27 01:11:29;;;;;;;0.30;0.30;;;1.40;99.90;;;;;;4996696;28;20019;-74
2023/04/27 01:13:55;;;;;;;0.20;0.20;;;1.40;99.90;;;;;;5013190;28;20030;-73
2023/04/27 01:16:21;;;;;;;0.20;0.20;;;1.40;99.90;;;;;;5000283;28;20065;-74
2023/04/27 01:18:47;;;;;;;0.20;0.20;;;1.40;99.90;;;;;;4959467;28;20050;-74
2023/04/27 01:21:12;;;;;;;0.30;0.30;;;1.50;99.90;;;;;;4977471;28;20030;-74
2023/04/27 01:23:38;;;;;;;0.22;0.22;;;1.50;99.90;;;;;;4977318;28;20444;-74
2023/04/27 01:26:03;;;;;;;0.25;0.25;;;1.50;99.90;;;;;;4977467;28;20023;-74
2023/04/27 01:28:30;;;;;;;0.20;0.20;;;1.50;99.90;;;;;;4977105;28;20113;-74
2023/04/27 01:30:55;;;;;;;0.20;0.20;;;1.50;99.90;;;;;;4977121;28;20503;-74
2023/04/27 01:33:21;;;;;;;0.10;0.10;;;1.50;99.90;;;;;;4976696;28;20031;-74
2023/04/27 01:35:46;;;;;;;0.20;0.20;;;1.50;99.90;;;;;;4959776;28;20029;-74
2023/04/27 01:38:12;;;;;;;0.20;0.20;;;1.60;99.90;;;;;;4976932;28;20047;-74
2023/04/27 01:40:38;;;;;;;0.25;0.25;;;1.70;99.90;;;;;;4977294;28;20485;-74
2023/04/27 01:43:03;;;;;;;0.20;0.20;;;1.60;99.90;;;;;;4976155;28;20037;-74
2023/04/27 01:45:29;;;;;;;0.20;0.20;;;1.60;99.90;;;;;;4976943;28;20133;-74
2023/04/27 01:47:55;;;;;;;0.20;0.20;;;1.60;99.90;;;;;;4976803;28;20031;-74
2023/04/27 01:50:20;;;;;;;0.28;0.28;;;1.60;99.90;;;;;;4976973;28;20101;-74
2023/04/27 01:52:46;;;;;;;0.20;0.20;;;1.80;99.90;;;;;;4976865;28;20106;-74
2023/04/27 01:55:12;;;;;;;0.20;0.20;;;2.00;99.90;;;;;;4976386;28;20035;-74
2023/04/27 01:57:37;;;;;;;0.20;0.20;;;2.10;99.90;;;;;;4976707;28;20500;-74
2023/04/27 02:00:04;;;;;;;0.20;0.20;;;2.10;99.90;;;;;;4977248;28;20026;-74
2023/04/27 02:02:30;;;;;;;0.20;0.20;;;2.20;99.90;;;;;;4975258;28;20059;-74
2023/04/27 02:04:55;;;;;;;0.15;0.15;;;2.20;99.90;;;;;;4976561;28;20027;-74
2023/04/27 02:07:21;;;;;;;0.20;0.20;;;2.20;99.90;;;;;;4976122;28;20026;-74
2023/04/27 02:09:46;;;;;;;0.20;0.20;;;2.30;99.90;;;;;;4976460;28;20023;-74
2023/04/27 02:12:12;;;;;;;0.20;0.20;;;2.50;99.90;;;;;;4976358;28;20106;-74
2023/04/27 02:14:37;;;;;;;0.20;0.20;;;2.70;99.90;;;;;;4976448;28;20026;-74
2023/04/27 02:17:03;;;;;;;0.20;0.20;;;2.70;99.90;;;;;;4975739;28;20042;-74
2023/04/27 02:19:28;;;;;;;0.20;0.20;;;2.60;99.90;;;;;;4976430;28;20031;-74
2023/04/27 02:21:54;;;;;;;0.20;0.20;;;2.40;99.90;;;;;;4976149;28;20023;-74
2023/04/27 02:24:20;;;;;;;0.20;0.20;;;2.30;99.90;;;;;;4976159;28;20035;-74
2023/04/27 02:26:45;;;;;;;0.20;0.20;;;2.20;99.90;;;;;;4975704;28;20019;-74
2023/04/27 02:29:11;;;;;;;0.20;0.20;;;2.10;99.90;;;;;;4976052;28;20074;-74
2023/04/27 02:31:36;;;;;;;0.25;0.25;;;2.20;99.90;;;;;;4976075;28;20026;-74
2023/04/27 02:34:02;;;;;;;0.20;0.20;;;2.10;99.90;;;;;;4976051;28;20035;-74
2023/04/27 02:36:27;;;;;;;0.20;0.20;;;2.10;99.90;;;;;;4976254;28;20022;-74
2023/04/27 02:38:53;;;;;;;0.30;0.30;;;1.90;99.90;;;;;;4975805;28;20034;-74
2023/04/27 02:41:18;;;;;;;0.20;0.20;;;1.80;99.90;;;;;;4975516;28;20488;-74
2023/04/27 02:43:45;;;;;;;0.20;0.20;;;1.80;99.90;;;;;;4975865;28;20562;-74
2023/04/27 02:46:11;;;;;;;0.20;0.20;;;1.60;99.90;;;;;;4975840;28;20022;-74
2023/04/27 02:48:36;;;;;;;0.17;0.17;;;1.60;99.90;;;;;;4985869;28;20026;-74
2023/04/27 02:51:03;;;;;;;0.20;0.20;;;1.60;99.90;;;;;;4996362;28;20105;-73
2023/04/27 02:53:29;;;;;;;0.20;0.20;;;1.50;99.90;;;;;;5013101;28;20018;-73
2023/04/27 02:55:54;;;;;;;0.20;0.20;;;1.50;99.90;;;;;;4991913;28;20455;-74
2023/04/27 02:58:20;;;;;;;0.20;0.20;;;1.50;99.90;;;;;;4994587;28;20030;-73
2023/04/27 03:00:45;;;;;;;0.20;0.20;;;1.60;99.90;;;;;;4978668;28;20480;-74
2023/04/27 03:03:11;;;;;;;0.20;0.20;;;1.80;99.90;;;;;;4975464;28;20480;-73
2023/04/27 03:05:37;;;;;;;0.20;0.20;;;1.90;99.90;;;;;;4974084;28;20023;-74
2023/04/27 03:08:03;;;;;;;0.20;0.20;;;2.00;99.90;;;;;;4975838;28;20481;-73
2023/04/27 03:10:28;;;;;;;0.20;0.20;;;2.20;99.90;;;;;;4994854;28;20027;-74
2023/04/27 03:12:54;;;;;;;0.20;0.20;;;2.10;99.90;;;;;;4994891;28;20037;-74
2023/04/27 03:15:20;;;;;;;0.20;0.20;;;2.10;99.90;;;;;;4976750;28;20026;-74
2023/04/27 03:17:45;;;;;;;0.20;0.20;;;2.00;99.90;;;;;;4976887;28;20508;-74
2023/04/27 03:20:11;;;;;;;0.20;0.20;;;2.00;99.90;;;;;;4994702;28;20034;-74
2023/04/27 03:22:37;;;;;;;0.20;0.20;;;1.90;99.90;;;;;;4994420;28;20031;-74
2023/04/27 03:25:03;;;;;;;0.17;0.17;;;1.80;99.90;;;;;;4993689;28;20535;-74
2023/04/27 03:27:28;;;;;;;0.22;0.22;;;1.70;99.90;;;;;;4993383;28;20022;-74
2023/04/27 03:29:54;;;;;;;0.13;0.13;;;1.70;99.90;;;;;;4994680;28;20097;-74
2023/04/27 03:32:20;;;;;;;0.22;0.22;;;1.70;99.90;;;;;;4994434;28;20077;-74
2023/04/27 03:34:45;;;;;;;0.20;0.20;;;1.80;99.90;;;;;;4994377;28;20026;-74
2023/04/27 03:37:11;;;;;;;0.20;0.20;;;1.90;99.90;;;;;;4993637;28;20518;-74
2023/04/27 03:39:37;;;;;;;0.20;0.20;;;2.10;99.90;;;;;;4994583;28;20427;-74
2023/04/27 03:42:03;;;;;;;0.20;0.20;;;2.40;99.90;;;;;;5007176;28;20030;-74
2023/04/27 03:44:32;;;;;;;0.10;0.10;;;2.50;99.90;;;;;;5013832;28;20022;-74
2023/04/27 03:46:57;;;;;;;0.20;0.20;;;2.50;99.90;;;;;;5013123;28;20110;-74
2023/04/27 03:49:23;;;;;;;0.20;0.20;;;2.40;99.90;;;;;;5013814;28;20500;-74
2023/04/27 03:51:48;;;;;;;0.20;0.20;;;2.50;99.90;;;;;;5013556;28;20025;-74
2023/04/27 03:54:14;;;;;;;0.10;0.10;;;2.40;99.90;;;;;;5013735;28;20025;-74
2023/04/27 03:56:40;;;;;;;0.15;0.15;;;2.40;99.90;;;;;;5012974;28;20041;-73
2023/04/27 03:59:05;;;;;;;0.20;0.20;;;2.40;99.90;;;;;;5013629;28;20093;-74
2023/04/27 04:01:33;;;;;;;0.20;0.20;;;2.40;99.90;;;;;;5013450;28;20034;-73
2023/04/27 04:03:58;;;;;;;0.20;0.20;;;2.70;99.90;;;;;;5013617;28;20029;-73
2023/04/27 04:06:24;;;;;;;0.20;0.20;;;2.80;99.90;;;;;;5013448;28;20475;-73
2023/04/27 04:08:50;;;;;;;0.10;0.10;;;2.80;99.90;;;;;;5013519;28;20021;-73
2023/04/27 04:11:15;;;;;;;0.20;0.20;;;2.80;99.90;;;;;;5012885;28;20022;-73
2023/04/27 04:13:41;;;;;;;0.20;0.20;;;2.70;99.90;;;;;;4995712;28;20025;-73
2023/04/27 04:16:08;;;;;;;0.17;0.17;;;2.60;99.90;;;;;;4995873;28;20026;-73
2023/04/27 04:18:35;;;;;;;0.30;0.30;;;2.40;99.90;;;;;;5013340;28;20065;-73
2023/04/27 04:21:01;;;;;;;0.30;0.30;;;2.30;99.90;;;;;;5013484;28;20438;-73
2023/04/27 04:23:27;;;;;;;0.10;0.10;;;2.10;99.90;;;;;;5012962;28;20460;-73
2023/04/27 04:25:55;;;;;;;0.30;0.30;;;1.90;99.90;;;;;;5011757;28;20046;-73
2023/04/27 04:28:22;;;;;;;0.30;0.30;;;1.80;99.90;;;;;;4995658;28;20022;-73
2023/04/27 04:30:48;;;;;;;0.20;0.20;;;1.70;99.90;;;;;;5013590;28;20025;-73
2023/04/27 04:33:13;;;;;;;0.22;0.22;;;1.70;99.90;;;;;;5012632;28;20022;-74
2023/04/27 04:35:40;;;;;;;0.22;0.22;;;1.60;99.90;;;;;;5012861;28;20403;-73
2023/04/27 04:38:06;;;;;;;0.13;0.13;;;1.60;99.90;;;;;;5012843;28;20042;-73
2023/04/27 04:40:31;;;;;;;0.20;0.20;;;1.60;99.90;;;;;;5013248;28;20080;-74
2023/04/27 04:42:57;;;;;;;0.20;0.20;;;1.50;99.90;;;;;;5013393;28;20034;-74
2023/04/27 04:45:22;;;;;;;0.28;0.28;;;1.60;99.90;;;;;;5012983;28;20030;-73
2023/04/27 04:47:48;;;;;;;0.20;0.20;;;1.60;99.90;;;;;;5012977;28;20030;-73
2023/04/27 04:50:14;;;;;;;0.20;0.20;;;1.70;99.90;;;;;;5012996;28;20391;-73
2023/04/27 04:52:39;;;;;;;0.20;0.20;;;1.70;99.90;;;;;;5013363;28;20058;-73
2023/04/27 04:55:05;;;;;;;0.20;0.20;;;1.80;99.90;;;;;;4995173;28;20018;-74
2023/04/27 04:57:31;;;;;;;0.20;0.20;;;1.90;99.90;;;;;;5012313;28;20394;-74
2023/04/27 04:59:56;;;;;;;0.10;0.10;;;2.00;99.90;;;;;;5012791;28;20439;-73
2023/04/27 05:02:22;;;;;;;0.13;0.13;;;2.10;99.90;;;;;;5012884;28;20022;-73
2023/04/27 05:04:48;;;;;;;0.17;0.17;;;2.10;99.90;;;;;;5011089;28;20022;-73
2023/04/27 05:07:13;;;;;;;0.20;0.20;;;2.20;99.90;;;;;;4993273;28;20089;-73
2023/04/27 05:09:39;;;;;;;0.20;0.20;;;2.30;99.90;;;;;;4975225;28;20022;-73
2023/04/27 05:12:06;;;;;;;0.20;0.20;;;2.40;99.90;;;;;;4993597;28;20110;-74
2023/04/27 05:14:31;;;;;;;0.20;0.20;;;2.40;99.90;;;;;;4993389;28;20050;-73
2023/04/27 05:16:57;;;;;;;0.20;0.20;;;2.50;99.90;;;;;;4976407;28;20077;-73
2023/04/27 05:19:24;;;;;;;0.20;0.20;;;2.70;99.90;;;;;;4996202;28;20030;-73
2023/04/27 05:21:49;;;;;;;0.20;0.20;;;2.80;99.90;;;;;;4997115;28;20102;-73
2023/04/27 05:24:15;;;;;;;0.20;0.20;;;2.80;99.90;;;;;;4996889;28;20109;-73
2023/04/27 05:26:44;;;;;;;0.20;0.20;;;2.90;99.90;;;;;;4996778;28;20491;-74
2023/04/27 05:29:10;;;;;;;0.20;0.20;;;3.10;99.90;;;;;;4995925;28;20026;-74
2023/04/27 05:31:35;;;;;;;0.20;0.20;;;3.20;99.90;;;;;;4978789;28;20022;-74
2023/04/27 05:34:01;;;;;;;0.20;0.20;;;3.30;99.90;;;;;;4996352;28;20023;-74
2023/04/27 05:36:27;;;;;;;0.30;0.30;;;3.40;99.90;;;;;;4995502;28;20026;-74
2023/04/27 05:38:53;;;;;;;0.20;0.20;;;3.50;99.90;;;;;;4996474;28;20113;-74
2023/04/27 05:41:19;;;;;;;0.20;0.20;;;3.60;99.90;;;;;;5004146;28;20037;-74
2023/04/27 05:43:44;;;;;;;0.25;0.25;;;3.80;99.90;;;;;;5015433;28;20030;-74
2023/04/27 05:46:13;;;;;;;0.30;0.30;;;3.90;99.90;;;;;;5015893;28;20022;-74
2023/04/27 05:48:38;;;;;;;0.13;0.13;;;4.00;99.90;;;;;;5015657;28;20022;-74
2023/04/27 05:51:04;;;;;;;0.20;0.20;;;4.20;99.90;;;;;;5015774;28;20096;-74
2023/04/27 05:53:32;;;;;;;0.20;0.20;;;4.40;99.90;;;;;;4997679;28;20402;-74
2023/04/27 05:55:58;;;;;;;0.20;0.20;;;4.40;99.90;;;;;;5015852;28;20507;-74
2023/04/27 05:58:23;;;;;;;0.20;0.20;;;4.60;99.90;;;;;;5015963;28;20030;-74
2023/04/27 06:00:49;;;;;;;0.17;0.17;;;4.60;99.90;;;;;;5015173;28;20083;-73
2023/04/27 06:03:15;;;;;;;0.20;0.20;;;4.80;99.90;;;;;;5016105;28;20030;-74
2023/04/27 06:05:41;;;;;;;0.30;0.30;;;5.00;99.90;;;;;;5015657;28;20064;-74
2023/04/27 06:08:06;;;;;;;0.20;0.20;;;5.10;99.90;;;;;;5016098;28;20392;-74
2023/04/27 06:10:32;;;;;;;0.20;0.20;;;5.30;99.90;;;;;;5014809;28;20026;-73
2023/04/27 06:12:57;;;;;;;0.20;0.20;;;5.40;99.90;;;;;;5014576;28;20033;-74
2023/04/27 06:15:23;;;;;;;0.22;0.22;;;5.60;99.90;;;;;;5015482;28;20148;-74
2023/04/27 06:17:48;;;;;;;0.20;0.20;;;5.70;99.90;;;;;;4997308;28;20028;-74
2023/04/27 06:20:14;;;;;;;0.25;0.25;;;5.90;99.90;;;;;;5015369;28;20022;-74
2023/04/27 06:22:40;;;;;;;0.20;0.20;;;6.10;99.90;;;;;;5014753;28;20506;-74
2023/04/27 06:25:06;;;;;;;0.22;0.22;;;6.20;99.90;;;;;;5015498;28;20022;-74
2023/04/27 06:27:33;;;;;;;0.20;0.20;;;6.40;99.90;;;;;;5015191;28;20049;-74
2023/04/27 06:29:58;;;;;;;0.20;0.20;;;6.50;99.90;;;;;;5013816;28;20034;-74
2023/04/27 06:32:24;;;;;;;0.20;0.20;;;6.70;99.90;;;;;;5015099;28;20022;-74
2023/04/27 06:34:50;;;;;;;0.20;0.20;;;6.80;99.90;;;;;;5004830;28;20093;-73
2023/04/27 06:37:16;;;;;;;0.20;0.20;;;6.80;99.90;;;;;;4982761;28;20050;-73
2023/04/27 06:39:43;;;;;;;0.20;0.20;;;6.70;99.90;;;;;;5009965;28;20109;-73
2023/04/27 06:42:08;;;;;;;0.20;0.20;;;6.60;99.90;;;;;;5014880;28;20070;-73
2023/04/27 06:44:34;;;;;;;0.20;0.20;;;6.70;99.90;;;;;;4989429;28;20030;-73
2023/04/27 06:46:59;;;;;;;0.20;0.20;;;7.00;99.90;;;;;;4994878;28;20113;-73
2023/04/27 06:49:25;;;;;;;0.17;0.17;;;7.30;99.90;;;;;;4994419;28;20022;-73
2023/04/27 06:51:51;;;;;;;0.20;0.20;;;7.30;99.90;;;;;;4994985;28;20104;-73
2023/04/27 06:54:16;;;;;;;0.25;0.25;;;7.50;99.90;;;;;;4994569;28;20034;-73
2023/04/27 06:56:43;;;;;;;0.20;0.20;;;7.80;99.90;;;;;;5011007;28;20030;-73
2023/04/27 06:59:09;;;;;;;0.20;0.20;;;8.00;99.90;;;;;;4999730;28;20526;-73
2023/04/27 07:01:34;;;;;;;0.28;0.28;;;8.00;99.90;;;;;;4996192;28;20034;-73
2023/04/27 07:04:00;;;;;;;0.20;0.20;;;7.60;99.90;;;;;;5014381;28;20373;-73
2023/04/27 07:06:27;;;;;;;0.20;0.20;;;7.30;99.90;;;;;;5013917;28;20076;-73
2023/04/27 07:08:53;;;;;;;0.22;0.22;;;7.00;99.90;;;;;;5013295;28;20021;-73
2023/04/27 07:11:18;;;;;;;0.20;0.20;;;6.90;99.90;;;;;;4996794;28;20078;-73
2023/04/27 07:13:44;;;;;;;0.20;0.20;;;7.00;99.90;;;;;;4996923;28;20022;-73
2023/04/27 07:16:10;;;;;;;0.20;0.20;;;7.30;99.90;;;;;;5014058;28;20030;-73
2023/04/27 07:18:35;;;;;;;0.20;0.20;;;7.50;99.90;;;;;;5014398;28;20030;-73
2023/04/27 07:21:01;;;;;;;0.20;0.20;;;7.90;99.90;;;;;;5014298;28;20030;-73
2023/04/27 07:23:27;;;;;;;0.20;0.20;;;8.00;99.90;;;;;;4996562;28;20029;-74
2023/04/27 07:25:53;;;;;;;0.20;0.20;;;8.30;99.90;;;;;;5013574;28;20109;-73
2023/04/27 07:28:18;;;;;;;0.20;0.20;;;8.40;99.90;;;;;;5013990;28;20029;-73
2023/04/27 07:30:44;;;;;;;0.20;0.20;;;8.60;99.90;;;;;;5013849;28;20022;-73
2023/04/27 07:33:10;;;;;;;0.20;0.20;;;8.50;99.90;;;;;;5013987;28;20083;-74
2023/04/27 07:35:36;;;;;;;0.20;0.20;;;8.40;99.90;;;;;;5014102;28;20423;-73
2023/04/27 07:38:01;;;;;;;0.10;0.10;;;8.10;99.90;;;;;;5013306;28;20045;-73
2023/04/27 07:40:46;;;;;;;0.20;0.20;;;7.80;99.90;;;;;;5069750;23;20057;-76
2023/04/27 07:43:31;;;;;;;0.20;0.20;;;7.60;99.90;;;;;;4997191;28;20026;-76
2023/04/27 07:46:03;;;;;;;0.20;0.20;;;7.50;99.90;;;;;;4998542;28;20542;-76
2023/04/27 07:48:49;;;;;;;0.20;0.20;;;7.80;99.90;;;;;;4979242;28;20030;-77
2023/04/27 07:51:17;;;;;;;0.22;0.22;;;8.10;99.90;;;;;;4976953;28;20023;-76
2023/04/27 07:53:45;;;;;;;0.15;0.15;;;8.40;99.90;;;;;;4979393;28;20097;-78
2023/04/27 07:56:10;;;;;;;0.15;0.15;;;8.60;99.90;;;;;;4978903;28;20037;-76
2023/04/27 07:58:36;;;;;;;0.30;0.30;;;8.70;99.90;;;;;;4979876;28;20031;-77
2023/04/27 08:01:02;;;;;;;0.20;0.20;;;8.50;99.90;;;;;;4961120;28;20550;-77
2023/04/27 08:03:28;;;;;;;0.20;0.20;;;8.60;99.90;;;;;;4978446;28;20038;-77
2023/04/27 08:05:53;;;;;;;0.20;0.20;;;8.80;99.90;;;;;;4991206;28;20113;-77
2023/04/27 08:08:19;;;;;;;0.20;0.20;;;8.80;99.90;;;;;;5000263;28;20030;-76
2023/04/27 08:10:44;;;;;;;0.20;0.20;;;8.60;99.90;;;;;;5023908;23;20057;-77
2023/04/27 08:13:10;;;;;;;0.20;0.20;;;8.60;99.90;;;;;;5019026;28;20033;-77
2023/04/27 08:15:36;;;;;;;0.15;0.15;;;8.60;99.90;;;;;;5021708;28;20484;-77
2023/04/27 08:18:14;;;;;;;0.20;0.20;;;8.30;99.90;;;;;;5020482;28;20026;-77
2023/04/27 08:20:42;;;;;;;0.20;0.20;;;8.20;99.90;;;;;;5017958;28;20071;-77
2023/04/27 08:23:08;;;;;;;0.20;0.20;;;8.10;99.90;;;;;;5015449;28;20449;-76
2023/04/27 08:25:35;;;;;;;0.20;0.20;;;8.10;99.90;;;;;;5015854;28;20026;-77
2023/04/27 08:28:01;;;;;;;0.15;0.15;;;8.10;99.90;;;;;;5014792;28;20046;-76
2023/04/27 08:30:26;;;;;;;0.20;0.20;;;8.10;99.90;;;;;;5015553;28;20018;-77
2023/04/27 08:32:53;;;;;;;0.10;0.10;;;8.00;99.90;;;;;;5014988;28;20428;-77
2023/04/27 08:35:18;;;;;;;0.20;0.20;;;8.00;99.90;;;;;;5016628;28;20395;-77
2023/04/27 08:37:44;;;;;;;0.20;0.20;;;8.10;99.90;;;;;;5015766;28;20022;-76
2023/04/27 08:40:10;;;;;;;0.20;0.20;;;8.40;99.90;;;;;;5015696;28;20021;-77
2023/04/27 08:42:36;;;;;;;0.10;0.10;;;8.60;99.90;;;;;;5015244;28;20030;-78
2023/04/27 08:45:06;;;;;;;0.20;0.20;;;8.90;99.90;;;;;;5020107;28;20053;-79
2023/04/27 08:47:31;;;;;;;0.20;0.20;;;9.00;99.90;;;;;;5018213;28;20101;-76
2023/04/27 08:49:57;;;;;;;0.20;0.20;;;8.80;99.90;;;;;;5015585;28;20456;-77
2023/04/27 08:52:22;;;;;;;0.20;0.20;;;8.60;99.90;;;;;;5016557;28;20518;-76
2023/04/27 08:54:48;;;;;;;0.20;0.20;;;8.40;99.90;;;;;;5016570;28;20032;-76
2023/04/27 08:57:15;;;;;;;0.10;0.10;;;8.40;99.90;;;;;;5019154;28;20479;-77
2023/04/27 08:59:41;;;;;;;0.20;0.20;;;8.50;99.90;;;;;;5017531;28;20026;-77
2023/04/27 09:02:17;;;;;;;0.20;0.20;;;8.80;99.90;;;;;;5019355;28;20125;-77
2023/04/27 09:04:43;;;;;;;0.13;0.13;;;9.00;99.90;;;;;;5019305;28;20537;-77
2023/04/27 09:07:16;;;;;;;0.10;0.10;;;9.30;99.90;;;;;;5018826;28;20109;-76
2023/04/27 09:09:43;;;;;;;0.10;0.10;;;9.50;99.90;;;;;;5018343;28;20032;-76
2023/04/27 09:12:16;;;;;;;0.13;0.13;;;9.70;99.90;;;;;;5019848;28;20022;-77
2023/04/27 09:14:42;;;;;;;0.28;0.28;;;9.80;99.90;;;;;;5018038;28;20045;-76
2023/04/27 09:17:08;;;;;;;0.20;0.20;;;9.60;99.90;;;;;;5019791;28;20026;-77
2023/04/27 09:19:34;;;;;;;0.20;0.20;;;9.50;99.90;;;;;;5030869;23;20091;-76
2023/04/27 09:22:13;;;;;;;0.20;0.20;;;9.60;99.90;;;;;;5039340;28;20021;-77
2023/04/27 09:24:54;;;;;;;0.20;0.20;;;9.70;99.90;;;;;;5038509;28;20422;-76
2023/04/27 09:27:22;;;;;;;0.20;0.20;;;10.10;99.90;;;;;;5036166;28;20032;-76
2023/04/27 09:29:48;;;;;;;0.20;0.20;;;10.40;99.90;;;;;;5046452;28;20131;-77
2023/04/27 09:32:19;;;;;;;0.10;0.10;;;10.20;99.90;;;;;;5058126;28;20172;-77
2023/04/27 09:34:45;;;;;;;0.17;0.17;;;9.70;99.90;;;;;;5057251;28;20025;-77
2023/04/27 09:37:11;;;;;;;0.20;0.20;;;9.10;99.90;;;;;;5058230;28;20052;-76
2023/04/27 09:39:41;;;;;;;0.17;0.17;;;8.80;99.90;;;;;;5057048;28;20032;-76
2023/04/27 09:42:07;;;;;;;0.10;0.10;;;9.30;99.90;;;;;;5057586;28;20025;-76
2023/04/27 09:44:33;;;;;;;0.20;0.20;;;9.80;99.90;;;;;;5057397;28;20115;-76
2023/04/27 09:47:00;;;;;;;0.20;0.20;;;10.30;99.90;;;;;;5058661;28;20075;-78
2023/04/27 09:49:27;;;;;;;0.10;0.10;;;10.70;99.90;;;;;;5057072;28;20017;-76
2023/04/27 09:51:57;;;;;;;0.20;0.20;;;10.60;99.90;;;;;;5056773;28;20035;-77
2023/04/27 09:54:27;;;;;;;0.20;0.20;;;11.20;99.90;;;;;;5056834;28;20045;-76
2023/04/27 09:57:14;;;;;;;0.20;0.20;;;10.90;99.90;;;;;;5057000;28;20104;-76
2023/04/27 10:00:06;;;;;;;0.20;0.20;;;10.80;99.90;;;;;;5057647;23;20040;-76
2023/04/27 10:03:02;;;;;;;0.20;0.20;;;10.40;99.90;;;;;;5017284;28;20022;-76
2023/04/27 10:05:39;;;;;;;0.10;0.10;;;10.30;99.90;;;;;;5006610;28;20042;-77
2023/04/27 10:08:05;;;;;;;0.20;0.20;;;10.60;99.90;;;;;;5016181;28;20026;-76
2023/04/27 10:10:42;;;;;;;0.20;0.20;;;10.30;99.90;;;;;;5030970;28;20075;-77
2023/04/27 10:13:07;;;;;;;0.20;0.20;;;10.10;99.90;;;;;;5036938;28;20394;-76
2023/04/27 10:15:38;;;;;;;0.20;0.20;;;10.10;99.90;;;;;;5035354;28;20021;-76
2023/04/27 10:18:04;;;;;;;0.20;0.20;;;10.30;99.90;;;;;;5036760;28;20021;-76
2023/04/27 10:20:36;;;;;;;0.20;0.20;;;10.50;99.90;;;;;;5035725;28;20479;-77
2023/04/27 10:23:02;;;;;;;0.20;0.20;;;11.00;99.90;;;;;;5037126;28;20501;-77
2023/04/27 10:25:35;;;;;;;0.20;0.20;;;11.50;99.90;;;;;;5036010;28;20026;-77
2023/04/27 10:28:02;;;;;;;0.17;0.17;;;11.10;99.90;;;;;;5035448;28;20406;-76
2023/04/27 10:30:37;;;;;;;0.20;0.20;;;10.70;99.90;;;;;;5036804;28;20489;-77
2023/04/27 10:33:08;;;;;;;0.22;0.22;;;10.60;99.90;;;;;;5036529;28;20020;-77
2023/04/27 10:35:39;;;;;;;0.20;0.20;;;10.50;99.90;;;;;;5015457;28;20033;-76
2023/04/27 10:38:16;;;;;;;0.20;0.20;;;10.40;99.90;;;;;;5015356;28;20029;-72
2023/04/27 10:40:56;;;;;;;0.25;0.25;;;10.10;99.90;;;;;;5015342;28;20021;-72
2023/04/27 10:43:26;;;;;;;0.20;0.20;;;10.00;99.90;;;;;;5028035;28;20384;-72
2023/04/27 10:45:53;;;;;;;0.20;0.20;;;10.10;99.90;;;;;;5035462;28;20087;-72
2023/04/27 10:48:19;;;;;;;0.20;0.20;;;10.20;99.90;;;;;;5034067;28;20033;-72
2023/04/27 10:50:45;;;;;;;0.20;0.20;;;10.10;99.90;;;;;;5018089;23;20073;-73
2023/04/27 10:53:11;;;;;;;0.22;0.22;;;10.20;99.90;;;;;;4995616;28;20026;-73
2023/04/27 10:55:37;;;;;;;0.20;0.20;;;10.00;99.90;;;;;;4978042;28;20038;-73
2023/04/27 10:58:03;;;;;;;0.20;0.20;;;9.80;99.90;;;;;;4996292;28;20543;-73
2023/04/27 11:00:30;;;;;;;0.10;0.10;;;9.90;99.90;;;;;;4979006;28;20113;-73
2023/04/27 11:03:11;;;;;;;0.30;0.30;;;9.80;99.90;;;;;;4995821;28;20034;-73
2023/04/27 11:05:37;;;;;;;0.20;0.20;;;10.10;99.90;;;;;;4995953;28;20022;-73
2023/04/27 11:08:08;;;;;;;0.20;0.20;;;10.40;99.90;;;;;;4978553;28;20089;-73
2023/04/27 11:10:34;;;;;;;0.20;0.20;;;10.20;99.90;;;;;;5084858;23;20045;-73
2023/04/27 11:13:10;;;;;;;0.10;0.10;;;10.40;99.90;;;;;;5013414;28;20018;-73
2023/04/27 11:15:56;;;;;;;0.20;0.20;;;10.50;99.90;;;;;;5013351;28;20018;-72
2023/04/27 11:18:24;;;;;;;0.20;0.20;;;10.60;99.90;;;;;;5013116;28;20502;-73
2023/04/27 11:20:52;;;;;;;0.17;0.17;;;10.50;99.90;;;;;;5015313;28;20045;-73
2023/04/27 11:23:29;;;;;;;0.20;0.20;;;10.50;99.90;;;;;;5002902;28;20034;-73
2023/04/27 11:25:55;;;;;;;0.20;0.20;;;10.60;99.90;;;;;;4994963;28;20037;-73
2023/04/27 11:28:24;;;;;;;0.20;0.20;;;10.70;99.90;;;;;;4996087;28;20019;-73
2023/04/27 11:30:58;;;;;;;0.20;0.20;;;10.70;99.90;;;;;;4994422;28;20030;-72
2023/04/27 11:33:25;;;;;;;0.20;0.20;;;10.70;99.90;;;;;;4995444;28;20083;-73
2023/04/27 11:35:51;;;;;;;0.20;0.20;;;10.50;99.90;;;;;;4977758;28;20509;-72
2023/04/27 11:38:18;;;;;;;0.20;0.20;;;10.20;99.90;;;;;;4994433;28;20027;-73
2023/04/27 11:40:46;;;;;;;0.20;0.20;;;10.20;99.90;;;;;;5048230;23;20045;-72
2023/04/27 11:43:13;;;;;;;0.20;0.20;;;9.90;99.90;;;;;;5054345;28;20058;-73
2023/04/27 11:45:44;;;;;;;0.30;0.30;;;9.80;99.90;;;;;;5054367;28;20028;-72
2023/04/27 11:48:14;;;;;;;0.20;0.20;;;9.90;99.90;;;;;;5054123;28;20025;-72
2023/04/27 11:50:40;;;;;;;0.25;0.25;;;9.90;99.90;;;;;;5052967;28;20021;-72
2023/04/27 11:53:06;;;;;;;0.13;0.13;;;10.10;99.90;;;;;;5054119;28;20112;-73
2023/04/27 11:55:36;;;;;;;0.20;0.20;;;10.10;99.90;;;;;;5055461;28;20017;-76
2023/04/27 11:58:02;;;;;;;0.10;0.10;;;10.20;99.90;;;;;;5053838;28;20025;-76
2023/04/27 12:00:30;;;;;;;0.20;0.20;;;10.50;99.90;;;;;;5054826;28;20029;-76
2023/04/27 12:02:57;;;;;;;0.30;0.30;;;10.50;99.90;;;;;;5054230;28;20107;-76
2023/04/27 12:05:22;;;;;;;0.20;0.20;;;10.50;99.90;;;;;;5053576;28;20421;-76
2023/04/27 12:07:48;;;;;;;0.10;0.10;;;10.60;99.90;;;;;;5054937;28;20027;-76
2023/04/27 12:10:13;;;;;;;0.20;0.20;;;11.00;99.90;;;;;;5053225;28;20078;-76
2023/04/27 12:12:39;;;;;;;0.17;0.17;;;10.90;99.90;;;;;;5054231;28;20017;-76
2023/04/27 12:15:07;;;;;;;0.20;0.20;;;10.60;99.90;;;;;;5053326;28;20094;-77
2023/04/27 12:17:32;;;;;;;0.20;0.20;;;10.50;99.90;;;;;;5055066;28;20394;-76
2023/04/27 12:19:58;;;;;;;0.20;0.20;;;10.50;99.90;;;;;;5054239;28;20017;-76
2023/04/27 12:22:23;;;;;;;0.20;0.20;;;10.50;99.90;;;;;;5053850;28;20025;-76
2023/04/27 12:24:50;;;;;;;0.20;0.20;;;10.60;99.90;;;;;;5053174;28;20406;-76
2023/04/27 12:27:15;;;;;;;0.20;0.20;;;10.80;99.90;;;;;;5056260;28;20021;-76
2023/04/27 12:29:41;;;;;;;0.30;0.30;;;10.90;99.90;;;;;;5058792;28;20101;-76
2023/04/27 12:32:07;;;;;;;0.15;0.15;;;11.00;99.90;;;;;;5058982;28;20479;-76
2023/04/27 12:34:33;;;;;;;0.20;0.20;;;11.00;99.90;;;;;;5058186;28;20025;-76
2023/04/27 12:36:59;;;;;;;0.17;0.17;;;10.90;99.90;;;;;;5056962;28;20070;-77
2023/04/27 12:39:25;;;;;;;0.30;0.30;;;10.70;99.90;;;;;;5039160;28;20429;-76
2023/04/27 12:41:52;;;;;;;0.20;0.20;;;10.90;99.90;;;;;;5038477;28;20040;-76
2023/04/27 12:44:18;;;;;;;0.20;0.20;;;10.70;99.90;;;;;;5038268;28;20116;-76
2023/04/27 12:46:45;;;;;;;0.20;0.20;;;10.50;99.90;;;;;;5036927;28;20108;-76
2023/04/27 12:49:13;;;;;;;0.20;0.20;;;10.30;99.90;;;;;;5049598;28;20025;-77
2023/04/27 12:51:40;;;;;;;0.20;0.20;;;10.20;99.90;;;;;;5058285;28;20023;-76
2023/04/27 12:54:07;;;;;;;0.13;0.13;;;10.20;99.90;;;;;;5058260;28;20027;-76